Главная страница
METAR-TAF:

METAR-TAF

Аэропорты :

Гран-Канария, Испания

широта: 27-56N, долгота: 015-23W, высота над уровнем моря: 23 м

Текущие метеонаблюдения

Эта сводка был подготовлена 20 минут назад, в 06:30 UTC
Ветер 5 Узел от западно-северо-западный, изменяющийся между западный и северно-северо-западный
Температура 19°C
Влажность 73%
Давление 1019 hPa
Видимость 10 км и более
небольшая облачность на высоте 2200 фута

METAR: GCLP 170630Z 30005KT 280V340 9999 FEW022 19/14 Q1019 NOSIG

Время: 07:50 (06:50 UTC)

Прогноз

Эта сводка был подготовлена 4 часа и 50 минут назад, в 02:00 UTC
Прогноз действительный с 17-го 03 UTC до 18-го 03 UTC
Ветер 10 Узел от северно-северо-западный
Видимость 10 км и более
Отдельные облака на высоте 3000 фута
изменения
С 17-го 09 UTC до 17-го 11 UTC
Ветер 5 Узел от восточный

TAF: GCLP 170200Z 1703/1803 33010KT 9999 SCT030 TX25/1714Z TN18/1706Z BECMG 1709/1711 09005KT

Метеонаблюдения и прогнозы для более 4000 аэропортов (сводки METAR и TAF).

Имеющиеся станции представлены на карте желтыми и красными точками.

Чтобы увидеть название станции, наведите на нее мышь.

Затем щелкните, чтобы увидеть метеонаблюдения и метеопрогнозы.

Управление картой: чтобы увеличить масштаб, щелкните зеленые кнопки с черным крестиком; чтобы уменьшить масштаб, щелкните зеленую кнопку с тире; для просмотра соседних карт щелкайте зеленые стрелки.


METAR-TAF: